createdAt,value
2023-01-21T00:02:45.058Z,0
2023-01-21T00:06:10.288Z,0
2023-01-21T00:09:35.539Z,0
2023-01-21T00:13:00.805Z,0
2023-01-21T00:16:26.082Z,0
2023-01-21T00:19:51.306Z,0
2023-01-21T00:23:16.551Z,0
2023-01-21T00:26:41.790Z,0
2023-01-21T00:30:07.033Z,0
2023-01-21T00:33:32.338Z,0
2023-01-21T00:36:57.545Z,0
2023-01-21T00:40:22.795Z,0
2023-01-21T00:43:48.044Z,0
2023-01-21T00:47:13.299Z,0
2023-01-21T00:50:38.550Z,0
2023-01-21T00:54:03.775Z,0
2023-01-21T00:57:29.033Z,0
2023-01-21T01:00:54.290Z,0
2023-01-21T01:04:19.543Z,0
2023-01-21T01:07:45.166Z,0
2023-01-21T01:11:10.377Z,0
2023-01-21T01:14:35.671Z,0
2023-01-21T01:18:00.915Z,0
2023-01-21T01:21:26.530Z,0
2023-01-21T01:24:51.814Z,0
2023-01-21T01:28:17.022Z,0
2023-01-21T01:31:42.275Z,0
2023-01-21T01:35:07.542Z,0
2023-01-21T01:38:32.801Z,0
2023-01-21T01:41:58.081Z,0
2023-01-21T01:45:23.288Z,0
2023-01-21T01:48:48.535Z,0
2023-01-21T01:52:13.791Z,0
2023-01-21T01:55:39.033Z,0
2023-01-21T01:59:04.314Z,0
2023-01-21T02:02:29.522Z,0
2023-01-21T02:05:54.790Z,0
2023-01-21T02:09:20.031Z,0
2023-01-21T02:12:45.266Z,0
2023-01-21T02:16:10.560Z,0
2023-01-21T02:19:35.767Z,0
2023-01-21T02:23:01.024Z,0
2023-01-21T02:26:26.260Z,0
2023-01-21T02:29:51.501Z,0
2023-01-21T02:33:16.747Z,0
2023-01-21T02:36:41.971Z,0
2023-01-21T02:40:07.225Z,0
2023-01-21T02:43:32.466Z,0
2023-01-21T02:46:57.756Z,0
2023-01-21T02:50:23.056Z,0
2023-01-21T02:53:48.192Z,0
2023-01-21T02:57:13.452Z,0
2023-01-21T03:00:38.775Z,0
2023-01-21T03:04:03.942Z,0
2023-01-21T03:07:29.226Z,0
2023-01-21T03:10:54.447Z,0
2023-01-21T03:14:19.689Z,0
2023-01-21T03:17:44.938Z,0
2023-01-21T03:21:10.169Z,0
2023-01-21T03:24:35.430Z,0
2023-01-21T03:28:00.690Z,0
2023-01-21T03:31:25.953Z,0
2023-01-21T03:34:51.163Z,0
2023-01-21T03:38:16.405Z,0
2023-01-21T03:41:41.669Z,0
2023-01-21T03:45:06.916Z,0
2023-01-21T03:48:32.151Z,0
2023-01-21T03:51:57.415Z,0
2023-01-21T03:55:22.625Z,0
2023-01-21T03:58:47.924Z,0
2023-01-21T04:02:13.204Z,0
2023-01-21T04:05:38.375Z,0
2023-01-21T04:09:03.625Z,0
2023-01-21T04:12:28.861Z,0
2023-01-21T04:15:54.122Z,0
2023-01-21T04:19:19.362Z,0
2023-01-21T04:22:44.590Z,0
2023-01-21T04:26:09.833Z,0
2023-01-21T04:29:35.100Z,0
2023-01-21T04:33:00.403Z,0
2023-01-21T04:36:25.616Z,0
2023-01-21T04:39:50.845Z,0
2023-01-21T04:43:16.104Z,0
2023-01-21T04:46:41.347Z,0
2023-01-21T04:50:06.644Z,0
2023-01-21T04:53:31.856Z,0
2023-01-21T04:56:57.112Z,0
2023-01-21T05:00:22.354Z,0
2023-01-21T05:03:47.634Z,0
2023-01-21T05:07:12.899Z,0
2023-01-21T05:10:38.095Z,0
2023-01-21T05:14:03.343Z,0
2023-01-21T05:17:28.610Z,0
2023-01-21T05:20:53.860Z,0
2023-01-21T05:24:19.120Z,0
2023-01-21T05:27:44.351Z,0
2023-01-21T05:31:09.690Z,0
2023-01-21T05:34:34.837Z,0
2023-01-21T05:38:00.488Z,0
2023-01-21T05:41:25.322Z,0
2023-01-21T05:44:50.575Z,0
2023-01-21T05:48:15.816Z,0
2023-01-21T05:51:41.046Z,0
2023-01-21T05:55:06.274Z,0
2023-01-21T05:58:31.555Z,0
2023-01-21T06:01:56.784Z,0
2023-01-21T06:05:22.033Z,0
2023-01-21T06:08:47.276Z,0
2023-01-21T06:12:12.513Z,0
2023-01-21T06:15:37.807Z,0
2023-01-21T06:19:02.998Z,0
2023-01-21T06:22:28.240Z,0
2023-01-21T06:25:53.476Z,0
2023-01-21T06:29:18.715Z,0
2023-01-21T06:32:43.998Z,0
2023-01-21T06:36:09.212Z,0
2023-01-21T06:39:34.453Z,0
2023-01-21T06:42:59.696Z,0
2023-01-21T06:46:24.974Z,0
2023-01-21T06:49:50.309Z,0
2023-01-21T06:53:15.533Z,0
2023-01-21T06:56:40.774Z,0
2023-01-21T07:00:06.015Z,0
2023-01-21T07:03:31.535Z,0
2023-01-21T07:06:56.919Z,0
2023-01-21T07:10:22.206Z,0
2023-01-21T07:13:47.617Z,0
2023-01-21T07:17:13.057Z,0
2023-01-21T07:20:40.673Z,0
2023-01-21T07:24:03.730Z,0
2023-01-21T07:27:29.090Z,0
2023-01-21T07:30:54.483Z,0
2023-01-21T07:34:19.856Z,0
2023-01-21T07:37:45.193Z,0
2023-01-21T07:41:10.518Z,6
2023-01-21T07:44:35.801Z,6
2023-01-21T07:48:01.162Z,6
2023-01-21T07:51:26.431Z,6
2023-01-21T07:54:52.065Z,6
2023-01-21T07:58:17.437Z,6
2023-01-21T08:01:43.344Z,11
2023-01-21T08:05:08.516Z,11
2023-01-21T08:08:33.771Z,11
2023-01-21T08:11:59.021Z,17
2023-01-21T08:15:24.322Z,17
2023-01-21T08:18:49.580Z,17
2023-01-21T08:22:14.858Z,17
2023-01-21T08:25:40.080Z,23
2023-01-21T08:29:05.348Z,28
2023-01-21T08:32:30.613Z,28
2023-01-21T08:35:55.871Z,34
2023-01-21T08:39:21.174Z,34
2023-01-21T08:42:46.463Z,34
2023-01-21T08:46:11.729Z,45
2023-01-21T08:49:37.067Z,51
2023-01-21T08:53:02.479Z,45
2023-01-21T08:56:27.801Z,45
2023-01-21T08:59:53.177Z,45
2023-01-21T09:03:18.588Z,56
2023-01-21T09:06:43.940Z,45
2023-01-21T09:10:09.176Z,45
2023-01-21T09:13:36.254Z,45
2023-01-21T09:17:01.548Z,39
2023-01-21T09:20:26.882Z,45
2023-01-21T09:23:52.157Z,45
2023-01-21T09:27:17.459Z,45
2023-01-21T09:30:42.731Z,45
2023-01-21T09:34:08.016Z,45
2023-01-21T09:37:33.919Z,51
2023-01-21T09:40:59.172Z,51
2023-01-21T09:44:24.421Z,51
2023-01-21T09:47:49.676Z,56
2023-01-21T09:51:14.982Z,56
2023-01-21T09:54:40.177Z,56
2023-01-21T09:58:05.460Z,56
2023-01-21T10:01:30.740Z,51
2023-01-21T10:04:55.969Z,56
2023-01-21T10:08:21.319Z,62
2023-01-21T10:11:46.590Z,62
2023-01-21T10:15:11.943Z,62
2023-01-21T10:18:37.314Z,62
2023-01-21T10:22:02.693Z,68
2023-01-21T10:25:28.067Z,73
2023-01-21T10:28:53.386Z,79
2023-01-21T10:32:18.722Z,73
2023-01-21T10:35:44.064Z,73
2023-01-21T10:39:09.378Z,73
2023-01-21T10:42:35.469Z,68
2023-01-21T10:46:00.790Z,68
2023-01-21T10:49:26.316Z,62
2023-01-21T10:52:51.583Z,73
2023-01-21T10:56:16.868Z,68
2023-01-21T10:59:42.153Z,62
2023-01-21T11:03:07.460Z,68
2023-01-21T11:06:32.751Z,73
2023-01-21T11:09:58.007Z,68
2023-01-21T11:13:23.504Z,73
2023-01-21T11:16:48.979Z,73
2023-01-21T11:20:14.352Z,73
2023-01-21T11:23:39.837Z,73
2023-01-21T11:27:06.219Z,68
2023-01-21T11:30:48.608Z,79
2023-01-21T11:33:56.927Z,68
2023-01-21T11:37:22.240Z,62
2023-01-21T11:40:47.577Z,84
2023-01-21T11:44:12.895Z,90
2023-01-21T11:47:38.344Z,79
2023-01-21T11:51:03.725Z,62
2023-01-21T11:54:28.987Z,51
2023-01-21T11:57:54.301Z,51
2023-01-21T12:01:19.577Z,73
2023-01-21T12:04:44.898Z,79
2023-01-21T12:08:10.256Z,84
2023-01-21T12:11:35.562Z,79
2023-01-21T12:15:01.040Z,79
2023-01-21T12:18:26.412Z,73
2023-01-21T12:21:51.881Z,73
2023-01-21T12:25:17.448Z,79
2023-01-21T12:28:42.919Z,73
2023-01-21T12:32:08.355Z,68
2023-01-21T12:35:33.682Z,68
2023-01-21T12:38:59.016Z,68
2023-01-21T12:42:24.399Z,79
2023-01-21T12:45:49.800Z,84
2023-01-21T12:49:15.152Z,79
2023-01-21T12:52:40.438Z,73
2023-01-21T12:56:05.833Z,79
2023-01-21T12:59:31.669Z,68
2023-01-21T13:02:56.667Z,62
2023-01-21T13:06:23.977Z,51
2023-01-21T13:09:47.276Z,45
2023-01-21T13:13:12.624Z,51
2023-01-21T13:16:38.086Z,51
2023-01-21T13:20:03.372Z,62
2023-01-21T13:23:28.750Z,62
2023-01-21T13:26:54.299Z,62
2023-01-21T13:30:20.062Z,56
2023-01-21T13:33:45.451Z,56
2023-01-21T13:37:10.857Z,68
2023-01-21T13:40:38.233Z,68
2023-01-21T13:44:01.724Z,62
2023-01-21T13:47:27.107Z,51
2023-01-21T13:50:53.209Z,51
2023-01-21T13:54:19.086Z,39
2023-01-21T13:57:51.873Z,34
2023-01-21T14:01:18.815Z,39
2023-01-21T14:04:44.186Z,39
2023-01-21T14:08:13.166Z,45
2023-01-21T14:11:38.869Z,56
2023-01-21T14:15:05.558Z,39
2023-01-21T14:18:31.202Z,28
2023-01-21T14:21:56.607Z,23
2023-01-21T14:25:21.969Z,17
2023-01-21T14:28:47.367Z,23
2023-01-21T15:06:13.794Z,0
2023-01-21T15:09:39.077Z,6
2023-01-21T15:13:04.438Z,6
2023-01-21T15:16:29.807Z,6
2023-01-21T15:19:55.013Z,6
2023-01-21T15:23:20.334Z,6
2023-01-21T15:26:45.583Z,0
2023-01-21T15:30:10.850Z,0
2023-01-21T15:33:36.139Z,0
2023-01-21T15:37:01.438Z,0
2023-01-21T15:40:26.784Z,0
2023-01-21T15:43:52.091Z,0
2023-01-21T15:47:17.440Z,0
2023-01-21T15:50:42.716Z,0
2023-01-21T15:54:08.010Z,0
2023-01-21T15:57:33.333Z,0
2023-01-21T16:00:58.657Z,0
2023-01-21T16:04:23.863Z,0
2023-01-21T16:07:49.199Z,0
2023-01-21T16:11:14.576Z,0
2023-01-21T16:14:39.894Z,0
2023-01-21T16:18:05.130Z,0
2023-01-21T16:21:30.421Z,0
2023-01-21T16:24:55.725Z,0
2023-01-21T16:28:21.089Z,0
2023-01-21T16:31:46.441Z,0
2023-01-21T16:35:11.645Z,0
2023-01-21T16:38:37.001Z,0
2023-01-21T16:42:02.232Z,0
2023-01-21T16:45:27.500Z,0
2023-01-21T16:48:52.864Z,0
2023-01-21T16:52:18.100Z,0
2023-01-21T16:55:43.373Z,0
2023-01-21T16:59:08.699Z,0
2023-01-21T17:02:34.054Z,0
2023-01-21T17:05:59.317Z,0
2023-01-21T17:09:24.587Z,0
2023-01-21T17:12:49.902Z,0
2023-01-21T17:16:15.217Z,0
2023-01-21T17:19:40.875Z,0
2023-01-21T17:23:06.107Z,0
2023-01-21T17:26:31.357Z,0
2023-01-21T17:29:56.850Z,0
2023-01-21T17:33:22.213Z,0
2023-01-21T17:36:47.619Z,0
2023-01-21T17:40:12.986Z,0
2023-01-21T17:43:38.283Z,0
2023-01-21T17:47:03.576Z,0
2023-01-21T17:50:28.900Z,0
2023-01-21T17:53:54.886Z,0
2023-01-21T17:57:20.153Z,0
2023-01-21T18:00:46.433Z,0
2023-01-21T18:04:11.707Z,0
2023-01-21T18:07:37.091Z,0
2023-01-21T18:11:02.442Z,0
2023-01-21T18:14:27.760Z,0
2023-01-21T18:17:53.017Z,0
2023-01-21T18:21:18.295Z,0
2023-01-21T18:24:43.525Z,0
2023-01-21T18:28:08.804Z,0
2023-01-21T18:31:34.234Z,0
2023-01-21T18:34:59.397Z,0
2023-01-21T18:38:24.649Z,0
2023-01-21T18:41:49.943Z,0
2023-01-21T18:45:15.557Z,0
2023-01-21T18:48:40.511Z,0
2023-01-21T18:52:05.769Z,0
2023-01-21T18:55:31.019Z,0
2023-01-21T18:58:56.307Z,0
2023-01-21T19:02:21.710Z,0
2023-01-21T19:05:46.934Z,0
2023-01-21T19:09:13.817Z,0
2023-01-21T19:12:37.443Z,0
2023-01-21T19:16:02.766Z,0
2023-01-21T19:19:28.001Z,0
2023-01-21T19:22:53.302Z,0
2023-01-21T19:26:18.596Z,0
2023-01-21T19:29:43.854Z,0
2023-01-21T19:33:09.166Z,0
2023-01-21T19:36:34.447Z,0
2023-01-21T19:39:59.916Z,0
2023-01-21T19:43:25.163Z,0
2023-01-21T19:46:50.435Z,0
2023-01-21T19:50:15.846Z,0
2023-01-21T19:53:41.040Z,0
2023-01-21T19:57:06.426Z,0
2023-01-21T20:00:31.684Z,0
2023-01-21T20:04:00.460Z,0
2023-01-21T20:07:22.274Z,0
2023-01-21T20:10:47.595Z,0
2023-01-21T20:14:12.987Z,0
2023-01-21T20:17:38.249Z,0
2023-01-21T20:21:03.573Z,0
2023-01-21T20:24:28.883Z,0
2023-01-21T20:27:54.284Z,0
2023-01-21T20:31:19.796Z,0
2023-01-21T20:34:44.946Z,0
2023-01-21T20:38:10.209Z,0
2023-01-21T20:41:35.644Z,0
2023-01-21T20:45:01.041Z,0
2023-01-21T20:48:26.479Z,0
2023-01-21T20:51:51.763Z,0
2023-01-21T20:55:19.726Z,0
2023-01-21T20:58:42.693Z,0
2023-01-21T21:02:07.999Z,0
2023-01-21T21:05:33.378Z,0
2023-01-21T21:08:58.638Z,0
2023-01-21T21:12:23.904Z,0
2023-01-21T21:15:49.268Z,0
2023-01-21T21:19:14.573Z,0
2023-01-21T21:22:39.863Z,0
2023-01-21T21:26:05.111Z,0
2023-01-21T21:29:30.402Z,0
2023-01-21T21:32:55.689Z,0
2023-01-21T21:36:20.954Z,0
2023-01-21T21:39:46.265Z,0
2023-01-21T21:43:11.505Z,0
2023-01-21T21:46:36.727Z,0
2023-01-21T21:50:02.031Z,0
2023-01-21T21:53:27.258Z,0
2023-01-21T21:56:52.625Z,0
2023-01-21T22:00:17.811Z,0
2023-01-21T22:03:43.072Z,0
2023-01-21T22:07:08.322Z,0
2023-01-21T22:10:33.600Z,0
2023-01-21T22:13:58.882Z,0
2023-01-21T22:17:24.086Z,0
2023-01-21T22:20:49.362Z,0
2023-01-21T22:24:14.649Z,0
2023-01-21T22:27:39.937Z,0
2023-01-21T22:31:05.364Z,0
2023-01-21T22:34:30.464Z,0
2023-01-21T22:37:55.754Z,0
2023-01-21T22:41:20.999Z,0
2023-01-21T22:44:46.311Z,0
2023-01-21T22:48:11.616Z,0
2023-01-21T22:51:36.818Z,0
2023-01-21T22:55:02.105Z,0
2023-01-21T22:58:27.410Z,0
2023-01-21T23:01:52.636Z,0
2023-01-21T23:05:18.263Z,0
2023-01-21T23:08:43.174Z,0
2023-01-21T23:12:08.439Z,0
2023-01-21T23:15:33.764Z,0
2023-01-21T23:18:58.948Z,0
2023-01-21T23:22:24.236Z,0
2023-01-21T23:25:49.511Z,0
2023-01-21T23:29:14.783Z,0
2023-01-21T23:32:40.047Z,0
2023-01-21T23:36:05.341Z,0
2023-01-21T23:39:30.656Z,0
2023-01-21T23:42:55.917Z,0
2023-01-21T23:46:21.379Z,0
2023-01-21T23:49:46.501Z,0
2023-01-21T23:53:11.757Z,0
2023-01-21T23:56:37.033Z,0
